GLO9634 SBGR-SBCY
Flight info
| Callsign | GLO9634 |
|---|---|
| Flight time | 1h 47m |
| Altitude | 38000 |
| Route | GERTU UL201 PANAB DCT RODAD UM775 SINIP |
| Aircraft | B738/M-SDFGIKLORWXY/LB1 |
Departure
| Time | 2026-04-22 14:11 |
|---|---|
| Airport | São Paulo/Guarulhos–Governor André Franco Montoro International Airport (SBGR) |
Arrival
| Time | 2026-04-22 15:58 |
|---|---|
| Airport | Várzea Grande–Marechal Rondon International Airport (SBCY) |
| Time | Latitude | Longitude | Altitude | Speed | Heading |
|---|---|---|---|---|---|
| 2026-04-22 13:48 | -23.42942 | -46.48852 | 2441 ft | 0 kts | 275° |
| 2026-04-22 14:03 | -23.42942 | -46.48851 | 2441 ft | 1 kts | 275° |
| 2026-04-22 14:03 | -23.42944 | -46.48836 | 2441 ft | 2 kts | 275° |
| 2026-04-22 14:04 | -23.42945 | -46.48820 | 2441 ft | 2 kts | 275° |
| 2026-04-22 14:04 | -23.42946 | -46.48809 | 2441 ft | 2 kts | 276° |
| 2026-04-22 14:04 | -23.42944 | -46.48793 | 2442 ft | 2 kts | 239° |
| 2026-04-22 14:04 | -23.42934 | -46.48781 | 2442 ft | 2 kts | 210° |
| 2026-04-22 14:05 | -23.42924 | -46.48777 | 2442 ft | 0 kts | 187° |
| 2026-04-22 14:05 | -23.42917 | -46.48776 | 2443 ft | 0 kts | 184° |
| 2026-04-22 14:06 | -23.42945 | -46.48779 | 2442 ft | 8 kts | 184° |
| 2026-04-22 14:07 | -23.43023 | -46.48787 | 2441 ft | 12 kts | 186° |
| 2026-04-22 14:07 | -23.43103 | -46.48785 | 2441 ft | 10 kts | 164° |
| 2026-04-22 14:07 | -23.43160 | -46.48744 | 2441 ft | 9 kts | 112° |
| 2026-04-22 14:07 | -23.43170 | -46.48685 | 2442 ft | 7 kts | 98° |
| 2026-04-22 14:08 | -23.43177 | -46.48638 | 2443 ft | 5 kts | 98° |
| 2026-04-22 14:08 | -23.43182 | -46.48597 | 2443 ft | 6 kts | 96° |
| 2026-04-22 14:08 | -23.43189 | -46.48517 | 2443 ft | 14 kts | 94° |
| 2026-04-22 14:08 | -23.43204 | -46.48400 | 2446 ft | 12 kts | 142° |
| 2026-04-22 14:09 | -23.43269 | -46.48373 | 2447 ft | 10 kts | 161° |
| 2026-04-22 14:09 | -23.43299 | -46.48365 | 2448 ft | 0 kts | 164° |
| 2026-04-22 14:09 | -23.43300 | -46.48365 | 2448 ft | 1 kts | 164° |
| 2026-04-22 14:09 | -23.43332 | -46.48355 | 2449 ft | 8 kts | 163° |
| 2026-04-22 14:10 | -23.43407 | -46.48326 | 2451 ft | 14 kts | 130° |
| 2026-04-22 14:10 | -23.43374 | -46.48139 | 2451 ft | 52 kts | 73° |
| 2026-04-22 14:10 | -23.43196 | -46.47478 | 2451 ft | 128 kts | 73° |
| 2026-04-22 14:10 | -23.42874 | -46.46303 | 2450 ft | 191 kts | 73° |
| 2026-04-22 14:11 | -23.42479 | -46.44877 | 3248 ft | 196 kts | 72° |
| 2026-04-22 14:11 | -23.42077 | -46.43527 | 4048 ft | 193 kts | 71° |
| 2026-04-22 14:11 | -23.41643 | -46.42093 | 4450 ft | 206 kts | 71° |
| 2026-04-22 14:11 | -23.41192 | -46.40564 | 4902 ft | 218 kts | 72° |
| 2026-04-22 14:12 | -23.40715 | -46.38928 | 5270 ft | 236 kts | 72° |
| 2026-04-22 14:12 | -23.40206 | -46.37180 | 5726 ft | 249 kts | 71° |
| 2026-04-22 14:12 | -23.39554 | -46.35399 | 6170 ft | 263 kts | 62° |
| 2026-04-22 14:12 | -23.38594 | -46.33641 | 6751 ft | 272 kts | 57° |
| 2026-04-22 14:13 | -23.37530 | -46.31917 | 7420 ft | 278 kts | 56° |
| 2026-04-22 14:13 | -23.36440 | -46.30168 | 8112 ft | 283 kts | 53° |
| 2026-04-22 14:13 | -23.34957 | -46.28769 | 8755 ft | 291 kts | 26° |
| 2026-04-22 14:13 | -23.32984 | -46.28299 | 9438 ft | 298 kts | 358° |
| 2026-04-22 14:14 | -23.30974 | -46.28821 | 10155 ft | 302 kts | 334° |
| 2026-04-22 14:14 | -23.29227 | -46.30156 | 10768 ft | 312 kts | 315° |
| 2026-04-22 14:14 | -23.27794 | -46.31973 | 11240 ft | 325 kts | 306° |
| 2026-04-22 14:14 | -23.26433 | -46.34004 | 11686 ft | 339 kts | 304° |
| 2026-04-22 14:15 | -23.25055 | -46.36133 | 12211 ft | 350 kts | 304° |
| 2026-04-22 14:15 | -23.23642 | -46.38296 | 12875 ft | 356 kts | 304° |
| 2026-04-22 14:15 | -23.22188 | -46.40487 | 13645 ft | 359 kts | 304° |
| 2026-04-22 14:15 | -23.20709 | -46.42689 | 14450 ft | 360 kts | 305° |
| 2026-04-22 14:16 | -23.19241 | -46.44861 | 15241 ft | 362 kts | 304° |
| 2026-04-22 14:16 | -23.17743 | -46.47072 | 15994 ft | 366 kts | 304° |
| 2026-04-22 14:16 | -23.16219 | -46.49319 | 16736 ft | 369 kts | 304° |
| 2026-04-22 14:16 | -23.14711 | -46.51541 | 17424 ft | 372 kts | 304° |
| 2026-04-22 14:17 | -23.13165 | -46.53819 | 18117 ft | 375 kts | 304° |
| 2026-04-22 14:17 | -23.11607 | -46.56115 | 18766 ft | 379 kts | 304° |
| 2026-04-22 14:17 | -23.10038 | -46.58425 | 19428 ft | 381 kts | 303° |
| 2026-04-22 14:17 | -23.08468 | -46.60737 | 20036 ft | 385 kts | 303° |
| 2026-04-22 14:18 | -23.06875 | -46.63078 | 20655 ft | 388 kts | 303° |
| 2026-04-22 14:18 | -23.05275 | -46.65429 | 21253 ft | 390 kts | 303° |
| 2026-04-22 14:18 | -23.03649 | -46.67820 | 21836 ft | 394 kts | 303° |
| 2026-04-22 14:18 | -23.02018 | -46.70215 | 22392 ft | 397 kts | 303° |
| 2026-04-22 14:19 | -23.00371 | -46.72636 | 22949 ft | 400 kts | 303° |
| 2026-04-22 14:19 | -22.98716 | -46.75066 | 23470 ft | 404 kts | 303° |
| 2026-04-22 14:19 | -22.97041 | -46.77525 | 23972 ft | 408 kts | 302° |
| 2026-04-22 14:19 | -22.95343 | -46.80016 | 24465 ft | 412 kts | 302° |
| 2026-04-22 14:20 | -22.91893 | -46.85074 | 25417 ft | 421 kts | 302° |
| 2026-04-22 14:20 | -22.90150 | -46.87629 | 25844 ft | 425 kts | 302° |
| 2026-04-22 14:20 | -22.88368 | -46.90239 | 26300 ft | 429 kts | 302° |
| 2026-04-22 14:21 | -22.84792 | -46.95470 | 27165 ft | 437 kts | 302° |
| 2026-04-22 14:21 | -22.82982 | -46.98115 | 27614 ft | 439 kts | 302° |
| 2026-04-22 14:22 | -22.79309 | -47.03479 | 28398 ft | 447 kts | 302° |
| 2026-04-22 14:22 | -22.77465 | -47.06170 | 28781 ft | 451 kts | 302° |
| 2026-04-22 14:22 | -22.73688 | -47.11676 | 29693 ft | 455 kts | 302° |
| 2026-04-22 14:23 | -22.71809 | -47.14414 | 30068 ft | 459 kts | 302° |
| 2026-04-22 14:23 | -22.69899 | -47.17195 | 30566 ft | 459 kts | 302° |
| 2026-04-22 14:23 | -22.68005 | -47.19947 | 31258 ft | 455 kts | 302° |
| 2026-04-22 14:23 | -22.66139 | -47.22657 | 31843 ft | 453 kts | 302° |
| 2026-04-22 14:24 | -22.64255 | -47.25393 | 32377 ft | 451 kts | 302° |
| 2026-04-22 14:24 | -22.62376 | -47.28121 | 32919 ft | 449 kts | 302° |
| 2026-04-22 14:24 | -22.60517 | -47.30821 | 33459 ft | 448 kts | 302° |
| 2026-04-22 14:24 | -22.58651 | -47.33527 | 34047 ft | 445 kts | 302° |
| 2026-04-22 14:25 | -22.56816 | -47.36188 | 34559 ft | 444 kts | 302° |
| 2026-04-22 14:25 | -22.54972 | -47.38862 | 35130 ft | 441 kts | 302° |
| 2026-04-22 14:25 | -22.53155 | -47.41498 | 35585 ft | 440 kts | 302° |
| 2026-04-22 14:25 | -22.51316 | -47.44165 | 36064 ft | 438 kts | 302° |
| 2026-04-22 14:26 | -22.49493 | -47.46808 | 36466 ft | 438 kts | 302° |
| 2026-04-22 14:26 | -22.47659 | -47.49466 | 36911 ft | 436 kts | 302° |
| 2026-04-22 14:26 | -22.45836 | -47.52105 | 37343 ft | 434 kts | 302° |
| 2026-04-22 14:26 | -22.44031 | -47.54712 | 37689 ft | 434 kts | 302° |
| 2026-04-22 14:27 | -22.42147 | -47.57282 | 38050 ft | 435 kts | 306° |
| 2026-04-22 14:27 | -22.38023 | -47.62107 | 38142 ft | 439 kts | 310° |
| 2026-04-22 14:28 | -22.33719 | -47.66798 | 38144 ft | 437 kts | 311° |
| 2026-04-22 14:28 | -22.29388 | -47.71514 | 38150 ft | 438 kts | 311° |
| 2026-04-22 14:29 | -22.25091 | -47.76239 | 38154 ft | 438 kts | 310° |
| 2026-04-22 14:29 | -22.20840 | -47.80941 | 38159 ft | 437 kts | 310° |
| 2026-04-22 14:30 | -22.16592 | -47.85656 | 38160 ft | 440 kts | 310° |
| 2026-04-22 14:30 | -22.12293 | -47.90435 | 38156 ft | 444 kts | 310° |
| 2026-04-22 14:31 | -22.07991 | -47.95208 | 38157 ft | 441 kts | 310° |
| 2026-04-22 14:31 | -22.03673 | -47.99995 | 38155 ft | 442 kts | 311° |
| 2026-04-22 14:32 | -21.99348 | -48.04787 | 38153 ft | 444 kts | 311° |
| 2026-04-22 14:32 | -21.95015 | -48.09584 | 38143 ft | 445 kts | 311° |
| 2026-04-22 14:33 | -21.90674 | -48.14383 | 38142 ft | 445 kts | 311° |
| 2026-04-22 14:33 | -21.86334 | -48.19178 | 38139 ft | 445 kts | 311° |
| 2026-04-22 14:34 | -21.82003 | -48.23959 | 38131 ft | 445 kts | 310° |
| 2026-04-22 14:34 | -21.77669 | -48.28737 | 38132 ft | 444 kts | 311° |
| 2026-04-22 14:35 | -21.73329 | -48.33520 | 38125 ft | 445 kts | 311° |
| 2026-04-22 14:35 | -21.68965 | -48.38322 | 38121 ft | 445 kts | 311° |
| 2026-04-22 14:36 | -21.64582 | -48.43142 | 38120 ft | 446 kts | 311° |
| 2026-04-22 14:36 | -21.60222 | -48.47932 | 38117 ft | 446 kts | 311° |
| 2026-04-22 14:37 | -21.55866 | -48.52713 | 38108 ft | 447 kts | 311° |
| 2026-04-22 14:37 | -21.51483 | -48.57519 | 38107 ft | 447 kts | 311° |
| 2026-04-22 14:38 | -21.47126 | -48.62292 | 38106 ft | 446 kts | 311° |
| 2026-04-22 14:38 | -21.42783 | -48.67046 | 38106 ft | 446 kts | 311° |
| 2026-04-22 14:39 | -21.38412 | -48.71827 | 38108 ft | 446 kts | 311° |
| 2026-04-22 14:39 | -21.34029 | -48.76616 | 38107 ft | 446 kts | 311° |
| 2026-04-22 14:40 | -21.27498 | -48.83743 | 38106 ft | 446 kts | 311° |
| 2026-04-22 14:40 | -21.23105 | -48.88532 | 38101 ft | 445 kts | 311° |
| 2026-04-22 14:41 | -21.18775 | -48.93251 | 38097 ft | 444 kts | 312° |
| 2026-04-22 14:41 | -21.14390 | -48.98032 | 38089 ft | 445 kts | 312° |
| 2026-04-22 14:42 | -21.10026 | -49.02789 | 38088 ft | 445 kts | 312° |
| 2026-04-22 14:42 | -21.05678 | -49.07525 | 38090 ft | 445 kts | 312° |
| 2026-04-22 14:43 | -21.01320 | -49.12266 | 38087 ft | 445 kts | 312° |
| 2026-04-22 14:43 | -20.96961 | -49.17005 | 38087 ft | 445 kts | 312° |
| 2026-04-22 14:44 | -20.92612 | -49.21726 | 38089 ft | 444 kts | 312° |
| 2026-04-22 14:44 | -20.88253 | -49.26456 | 38091 ft | 444 kts | 312° |
| 2026-04-22 14:45 | -20.83873 | -49.31205 | 38094 ft | 444 kts | 312° |
| 2026-04-22 14:45 | -20.79532 | -49.35907 | 38095 ft | 444 kts | 312° |
| 2026-04-22 14:46 | -20.75157 | -49.40641 | 38095 ft | 445 kts | 312° |
| 2026-04-22 14:46 | -20.70778 | -49.45376 | 38090 ft | 444 kts | 312° |
| 2026-04-22 14:47 | -20.66410 | -49.50093 | 38083 ft | 444 kts | 312° |
| 2026-04-22 14:47 | -20.62077 | -49.54768 | 38083 ft | 444 kts | 312° |
| 2026-04-22 14:48 | -20.57716 | -49.59470 | 38077 ft | 443 kts | 312° |
| 2026-04-22 14:48 | -20.53379 | -49.64144 | 38077 ft | 444 kts | 312° |
| 2026-04-22 14:49 | -20.49009 | -49.68851 | 38083 ft | 444 kts | 313° |
| 2026-04-22 14:49 | -20.44676 | -49.73510 | 38078 ft | 443 kts | 313° |
| 2026-04-22 14:50 | -20.40319 | -49.78191 | 38075 ft | 443 kts | 313° |
| 2026-04-22 14:50 | -20.35965 | -49.82865 | 38070 ft | 443 kts | 313° |
| 2026-04-22 14:51 | -20.31599 | -49.87549 | 38068 ft | 442 kts | 313° |
| 2026-04-22 14:51 | -20.27235 | -49.92226 | 38065 ft | 442 kts | 313° |
| 2026-04-22 14:52 | -20.22885 | -49.96885 | 38063 ft | 442 kts | 313° |
| 2026-04-22 14:52 | -20.18522 | -50.01553 | 38062 ft | 441 kts | 313° |
| 2026-04-22 14:53 | -20.14182 | -50.06194 | 38063 ft | 443 kts | 313° |
| 2026-04-22 14:53 | -20.09805 | -50.10870 | 38063 ft | 442 kts | 313° |
| 2026-04-22 14:54 | -20.05474 | -50.15493 | 38061 ft | 442 kts | 313° |
| 2026-04-22 14:54 | -20.01096 | -50.20163 | 38063 ft | 442 kts | 313° |
| 2026-04-22 14:55 | -19.96736 | -50.24808 | 38064 ft | 443 kts | 313° |
| 2026-04-22 14:55 | -19.92393 | -50.29430 | 38070 ft | 443 kts | 313° |
| 2026-04-22 14:56 | -19.88003 | -50.34098 | 38076 ft | 443 kts | 313° |
| 2026-04-22 14:56 | -19.83613 | -50.38762 | 38075 ft | 443 kts | 313° |
| 2026-04-22 14:57 | -19.79268 | -50.43376 | 38073 ft | 443 kts | 313° |
| 2026-04-22 14:57 | -19.74859 | -50.48054 | 38070 ft | 444 kts | 313° |
| 2026-04-22 14:58 | -19.70495 | -50.52681 | 38071 ft | 444 kts | 313° |
| 2026-04-22 14:58 | -19.66076 | -50.57362 | 38073 ft | 445 kts | 313° |
| 2026-04-22 14:59 | -19.61861 | -50.62216 | 38074 ft | 445 kts | 309° |
| 2026-04-22 14:59 | -19.57850 | -50.67261 | 38072 ft | 445 kts | 309° |
| 2026-04-22 15:00 | -19.53873 | -50.72293 | 38070 ft | 445 kts | 309° |
| 2026-04-22 15:00 | -19.49831 | -50.77346 | 38066 ft | 445 kts | 309° |
| 2026-04-22 15:01 | -19.45808 | -50.82332 | 38067 ft | 445 kts | 309° |
| 2026-04-22 15:01 | -19.41744 | -50.87343 | 38072 ft | 445 kts | 310° |
| 2026-04-22 15:02 | -19.37699 | -50.92318 | 38074 ft | 445 kts | 310° |
| 2026-04-22 15:02 | -19.33654 | -50.97290 | 38078 ft | 445 kts | 310° |
| 2026-04-22 15:03 | -19.29576 | -51.02296 | 38081 ft | 446 kts | 310° |
| 2026-04-22 15:03 | -19.25516 | -51.07276 | 38080 ft | 446 kts | 310° |
| 2026-04-22 15:04 | -19.21442 | -51.12269 | 38080 ft | 446 kts | 310° |
| 2026-04-22 15:04 | -19.17374 | -51.17250 | 38080 ft | 446 kts | 310° |
| 2026-04-22 15:05 | -19.13303 | -51.22231 | 38081 ft | 446 kts | 309° |
| 2026-04-22 15:05 | -19.09226 | -51.27215 | 38082 ft | 446 kts | 310° |
| 2026-04-22 15:06 | -19.05149 | -51.32198 | 38086 ft | 446 kts | 310° |
| 2026-04-22 15:06 | -19.01089 | -51.37154 | 38091 ft | 446 kts | 310° |
| 2026-04-22 15:07 | -18.97009 | -51.42130 | 38097 ft | 447 kts | 310° |
| 2026-04-22 15:07 | -18.92931 | -51.47098 | 38099 ft | 447 kts | 310° |
| 2026-04-22 15:08 | -18.88825 | -51.52097 | 38103 ft | 446 kts | 310° |
| 2026-04-22 15:08 | -18.84779 | -51.57023 | 38109 ft | 447 kts | 310° |
| 2026-04-22 15:09 | -18.80670 | -51.62019 | 38109 ft | 447 kts | 310° |
| 2026-04-22 15:09 | -18.76576 | -51.66992 | 38102 ft | 448 kts | 310° |
| 2026-04-22 15:10 | -18.72484 | -51.71959 | 38099 ft | 449 kts | 310° |
| 2026-04-22 15:10 | -18.68385 | -51.76929 | 38102 ft | 448 kts | 310° |
| 2026-04-22 15:11 | -18.64271 | -51.81914 | 38106 ft | 447 kts | 310° |
| 2026-04-22 15:11 | -18.60164 | -51.86888 | 38111 ft | 446 kts | 311° |
| 2026-04-22 15:12 | -18.56073 | -51.91837 | 38117 ft | 446 kts | 311° |
| 2026-04-22 15:12 | -18.51968 | -51.96799 | 38128 ft | 448 kts | 311° |
| 2026-04-22 15:13 | -18.47834 | -52.01792 | 38135 ft | 450 kts | 310° |
| 2026-04-22 15:13 | -18.43721 | -52.06753 | 38136 ft | 447 kts | 310° |
| 2026-04-22 15:14 | -18.39623 | -52.11695 | 38134 ft | 448 kts | 310° |
| 2026-04-22 15:14 | -18.35494 | -52.16671 | 38134 ft | 447 kts | 310° |
| 2026-04-22 15:15 | -18.31386 | -52.21619 | 38133 ft | 447 kts | 310° |
| 2026-04-22 15:15 | -18.27257 | -52.26586 | 38126 ft | 450 kts | 311° |
| 2026-04-22 15:16 | -18.23124 | -52.31555 | 38129 ft | 453 kts | 311° |
| 2026-04-22 15:16 | -18.18961 | -52.36557 | 38129 ft | 452 kts | 311° |
| 2026-04-22 15:17 | -18.14829 | -52.41515 | 38129 ft | 450 kts | 311° |
| 2026-04-22 15:17 | -18.10690 | -52.46478 | 38130 ft | 449 kts | 311° |
| 2026-04-22 15:18 | -18.06574 | -52.51411 | 38129 ft | 445 kts | 311° |
| 2026-04-22 15:18 | -18.02456 | -52.56345 | 38133 ft | 452 kts | 311° |
| 2026-04-22 15:19 | -17.98278 | -52.61346 | 38136 ft | 453 kts | 311° |
| 2026-04-22 15:19 | -17.94116 | -52.66322 | 38139 ft | 451 kts | 312° |
| 2026-04-22 15:20 | -17.89982 | -52.71257 | 38144 ft | 450 kts | 311° |
| 2026-04-22 15:20 | -17.85834 | -52.76207 | 38144 ft | 451 kts | 312° |
| 2026-04-22 15:21 | -17.81687 | -52.81153 | 38145 ft | 450 kts | 312° |
| 2026-04-22 15:21 | -17.77515 | -52.86126 | 38140 ft | 450 kts | 312° |
| 2026-04-22 15:22 | -17.73363 | -52.91071 | 38132 ft | 451 kts | 312° |
| 2026-04-22 15:22 | -17.69170 | -52.96061 | 38131 ft | 451 kts | 312° |
| 2026-04-22 15:23 | -17.65000 | -53.01022 | 38128 ft | 451 kts | 312° |
| 2026-04-22 15:23 | -17.60813 | -53.05997 | 38121 ft | 452 kts | 312° |
| 2026-04-22 15:24 | -17.56649 | -53.10941 | 38115 ft | 452 kts | 312° |
| 2026-04-22 15:24 | -17.52735 | -53.16171 | 38105 ft | 453 kts | 303° |
| 2026-04-22 15:25 | -17.49510 | -53.21860 | 38109 ft | 453 kts | 300° |
| 2026-04-22 15:25 | -17.46420 | -53.27632 | 38108 ft | 454 kts | 300° |
| 2026-04-22 15:26 | -17.43269 | -53.33389 | 38107 ft | 455 kts | 301° |
| 2026-04-22 15:26 | -17.40036 | -53.39149 | 38106 ft | 454 kts | 301° |
| 2026-04-22 15:27 | -17.36793 | -53.44856 | 38105 ft | 455 kts | 301° |
| 2026-04-22 15:27 | -17.33548 | -53.50533 | 38106 ft | 454 kts | 301° |
| 2026-04-22 15:28 | -17.30285 | -53.56228 | 38109 ft | 455 kts | 301° |
| 2026-04-22 15:28 | -17.27009 | -53.61940 | 38110 ft | 454 kts | 301° |
| 2026-04-22 15:29 | -17.23740 | -53.67635 | 38112 ft | 454 kts | 302° |
| 2026-04-22 15:30 | -17.19374 | -53.75237 | 38113 ft | 455 kts | 302° |
| 2026-04-22 15:30 | -17.15570 | -53.81851 | 38111 ft | 457 kts | 302° |
| 2026-04-22 15:31 | -17.12284 | -53.87563 | 38104 ft | 456 kts | 302° |
| 2026-04-22 15:31 | -17.08990 | -53.93282 | 38101 ft | 456 kts | 302° |
| 2026-04-22 15:32 | -17.05712 | -53.98969 | 38101 ft | 454 kts | 302° |
| 2026-04-22 15:32 | -17.02442 | -54.04635 | 38099 ft | 455 kts | 302° |
| 2026-04-22 15:33 | -16.99169 | -54.10302 | 38093 ft | 455 kts | 301° |
| 2026-04-22 15:33 | -16.95878 | -54.15995 | 38081 ft | 457 kts | 301° |
| 2026-04-22 15:34 | -16.92579 | -54.21701 | 38062 ft | 456 kts | 302° |
| 2026-04-22 15:34 | -16.89276 | -54.27408 | 38044 ft | 457 kts | 301° |
| 2026-04-22 15:35 | -16.86530 | -54.32148 | 38035 ft | 455 kts | 301° |
| 2026-04-22 15:35 | -16.82661 | -54.38820 | 38034 ft | 456 kts | 301° |
| 2026-04-22 15:35 | -16.81027 | -54.41636 | 37889 ft | 450 kts | 301° |
| 2026-04-22 15:36 | -16.79431 | -54.44387 | 37500 ft | 443 kts | 302° |
| 2026-04-22 15:36 | -16.77845 | -54.47121 | 36995 ft | 439 kts | 302° |
| 2026-04-22 15:36 | -16.76252 | -54.49864 | 36392 ft | 437 kts | 302° |
| 2026-04-22 15:36 | -16.74685 | -54.52561 | 35788 ft | 435 kts | 302° |
| 2026-04-22 15:37 | -16.73117 | -54.55259 | 35106 ft | 435 kts | 302° |
| 2026-04-22 15:37 | -16.71543 | -54.57965 | 34420 ft | 435 kts | 302° |
| 2026-04-22 15:37 | -16.69971 | -54.60667 | 33726 ft | 435 kts | 302° |
| 2026-04-22 15:37 | -16.68418 | -54.63334 | 33013 ft | 436 kts | 302° |
| 2026-04-22 15:38 | -16.66824 | -54.66072 | 32317 ft | 436 kts | 303° |
| 2026-04-22 15:38 | -16.63666 | -54.71492 | 31130 ft | 444 kts | 303° |
| 2026-04-22 15:38 | -16.62017 | -54.74312 | 30544 ft | 466 kts | 303° |
| 2026-04-22 15:39 | -16.60309 | -54.77233 | 29910 ft | 470 kts | 303° |
| 2026-04-22 15:39 | -16.58620 | -54.80127 | 29277 ft | 468 kts | 303° |
| 2026-04-22 15:39 | -16.56956 | -54.82982 | 28652 ft | 465 kts | 303° |
| 2026-04-22 15:39 | -16.55265 | -54.85882 | 28041 ft | 462 kts | 303° |
| 2026-04-22 15:40 | -16.53601 | -54.88732 | 27421 ft | 460 kts | 303° |
| 2026-04-22 15:40 | -16.51955 | -54.91550 | 26804 ft | 458 kts | 302° |
| 2026-04-22 15:40 | -16.50307 | -54.94368 | 26176 ft | 455 kts | 302° |
| 2026-04-22 15:40 | -16.48662 | -54.97182 | 25552 ft | 453 kts | 302° |
| 2026-04-22 15:41 | -16.47028 | -54.99974 | 24922 ft | 451 kts | 302° |
| 2026-04-22 15:41 | -16.45408 | -55.02742 | 24298 ft | 448 kts | 301° |
| 2026-04-22 15:41 | -16.43778 | -55.05525 | 23669 ft | 445 kts | 301° |
| 2026-04-22 15:41 | -16.42179 | -55.08255 | 23051 ft | 442 kts | 301° |
| 2026-04-22 15:42 | -16.40596 | -55.10957 | 22436 ft | 439 kts | 301° |
| 2026-04-22 15:42 | -16.39019 | -55.13648 | 21832 ft | 436 kts | 301° |
| 2026-04-22 15:42 | -16.37426 | -55.16364 | 21213 ft | 433 kts | 301° |
| 2026-04-22 15:42 | -16.35868 | -55.19021 | 20607 ft | 430 kts | 301° |
| 2026-04-22 15:43 | -16.34308 | -55.21681 | 20004 ft | 427 kts | 301° |
| 2026-04-22 15:43 | -16.32774 | -55.24294 | 19399 ft | 424 kts | 301° |
| 2026-04-22 15:43 | -16.31236 | -55.26915 | 18789 ft | 422 kts | 301° |
| 2026-04-22 15:43 | -16.29709 | -55.29516 | 18188 ft | 419 kts | 301° |
| 2026-04-22 15:44 | -16.28204 | -55.32081 | 17592 ft | 416 kts | 301° |
| 2026-04-22 15:44 | -16.26704 | -55.34636 | 17001 ft | 413 kts | 301° |
| 2026-04-22 15:44 | -16.25206 | -55.37185 | 16406 ft | 410 kts | 302° |
| 2026-04-22 15:44 | -16.23725 | -55.39705 | 15817 ft | 408 kts | 302° |
| 2026-04-22 15:45 | -16.22247 | -55.42218 | 15223 ft | 405 kts | 301° |
| 2026-04-22 15:45 | -16.20792 | -55.44689 | 14635 ft | 402 kts | 301° |
| 2026-04-22 15:45 | -16.19342 | -55.47152 | 14049 ft | 399 kts | 302° |
| 2026-04-22 15:45 | -16.17907 | -55.49587 | 13468 ft | 396 kts | 302° |
| 2026-04-22 15:46 | -16.16460 | -55.52042 | 12875 ft | 392 kts | 302° |
| 2026-04-22 15:46 | -16.15046 | -55.54442 | 12288 ft | 389 kts | 302° |
| 2026-04-22 15:46 | -16.13644 | -55.56819 | 11708 ft | 386 kts | 302° |
| 2026-04-22 15:46 | -16.12241 | -55.59198 | 11129 ft | 383 kts | 302° |
| 2026-04-22 15:47 | -16.10857 | -55.61542 | 10579 ft | 379 kts | 302° |
| 2026-04-22 15:47 | -16.09498 | -55.63846 | 10221 ft | 367 kts | 302° |
| 2026-04-22 15:47 | -16.08220 | -55.66014 | 10065 ft | 339 kts | 302° |
| 2026-04-22 15:47 | -16.07016 | -55.68059 | 9709 ft | 323 kts | 303° |
| 2026-04-22 15:48 | -16.05871 | -55.70002 | 9284 ft | 311 kts | 303° |
| 2026-04-22 15:48 | -16.04751 | -55.71898 | 8890 ft | 299 kts | 303° |
| 2026-04-22 15:48 | -16.03682 | -55.73708 | 8518 ft | 289 kts | 303° |
| 2026-04-22 15:48 | -16.02654 | -55.75447 | 8161 ft | 279 kts | 303° |
| 2026-04-22 15:49 | -16.01649 | -55.77144 | 7813 ft | 274 kts | 303° |
| 2026-04-22 15:49 | -16.00619 | -55.78882 | 7459 ft | 290 kts | 303° |
| 2026-04-22 15:49 | -15.99563 | -55.80662 | 7082 ft | 290 kts | 303° |
| 2026-04-22 15:49 | -15.98506 | -55.82449 | 6703 ft | 284 kts | 303° |
| 2026-04-22 15:50 | -15.97502 | -55.84147 | 6346 ft | 274 kts | 303° |
| 2026-04-22 15:50 | -15.96512 | -55.85822 | 6000 ft | 265 kts | 303° |
| 2026-04-22 15:50 | -15.95535 | -55.87470 | 5715 ft | 277 kts | 304° |
| 2026-04-22 15:50 | -15.94521 | -55.89179 | 5566 ft | 270 kts | 304° |
| 2026-04-22 15:51 | -15.93570 | -55.90789 | 5485 ft | 251 kts | 303° |
| 2026-04-22 15:51 | -15.92696 | -55.92271 | 5427 ft | 233 kts | 304° |
| 2026-04-22 15:51 | -15.91867 | -55.93672 | 5340 ft | 222 kts | 304° |
| 2026-04-22 15:51 | -15.91070 | -55.95013 | 5260 ft | 212 kts | 304° |
| 2026-04-22 15:52 | -15.90297 | -55.96312 | 5191 ft | 210 kts | 304° |
| 2026-04-22 15:52 | -15.89528 | -55.97603 | 5118 ft | 212 kts | 304° |
| 2026-04-22 15:52 | -15.88736 | -55.98889 | 5038 ft | 209 kts | 310° |
| 2026-04-22 15:52 | -15.87680 | -55.99925 | 4825 ft | 209 kts | 333° |
| 2026-04-22 15:53 | -15.86369 | -56.00555 | 4500 ft | 210 kts | 339° |
| 2026-04-22 15:53 | -15.85016 | -56.01177 | 4126 ft | 215 kts | 337° |
| 2026-04-22 15:53 | -15.83672 | -56.01877 | 3916 ft | 207 kts | 334° |
| 2026-04-22 15:53 | -15.82469 | -56.02572 | 3884 ft | 191 kts | 333° |
| 2026-04-22 15:54 | -15.81318 | -56.03205 | 3732 ft | 184 kts | 336° |
| 2026-04-22 15:54 | -15.80174 | -56.03797 | 3499 ft | 177 kts | 336° |
| 2026-04-22 15:54 | -15.79100 | -56.04363 | 3270 ft | 171 kts | 335° |
| 2026-04-22 15:54 | -15.78060 | -56.04920 | 3065 ft | 166 kts | 335° |
| 2026-04-22 15:55 | -15.77017 | -56.05470 | 2850 ft | 167 kts | 335° |
| 2026-04-22 15:55 | -15.75988 | -56.06014 | 2639 ft | 165 kts | 334° |
| 2026-04-22 15:55 | -15.74969 | -56.06554 | 2448 ft | 162 kts | 334° |
| 2026-04-22 15:55 | -15.73986 | -56.07072 | 2219 ft | 155 kts | 333° |
| 2026-04-22 15:56 | -15.73064 | -56.07562 | 2002 ft | 144 kts | 333° |
| 2026-04-22 15:56 | -15.72164 | -56.08038 | 1861 ft | 145 kts | 332° |
| 2026-04-22 15:56 | -15.71263 | -56.08515 | 1656 ft | 144 kts | 332° |
| 2026-04-22 15:56 | -15.70364 | -56.08989 | 1488 ft | 144 kts | 332° |
| 2026-04-22 15:57 | -15.69469 | -56.09468 | 1294 ft | 143 kts | 331° |
| 2026-04-22 15:57 | -15.68602 | -56.09924 | 1120 ft | 136 kts | 332° |
| 2026-04-22 15:57 | -15.67745 | -56.10368 | 952 ft | 138 kts | 331° |
| 2026-04-22 15:57 | -15.66875 | -56.10825 | 780 ft | 138 kts | 330° |
| 2026-04-22 15:58 | -15.66033 | -56.11277 | 610 ft | 135 kts | 330° |
| 2026-04-22 15:58 | -15.65287 | -56.11673 | 603 ft | 88 kts | 333° |
| 2026-04-22 15:58 | -15.64883 | -56.11892 | 615 ft | 59 kts | 331° |
| 2026-04-22 15:58 | -15.64670 | -56.12007 | 621 ft | 26 kts | 336° |
| 2026-04-22 15:59 | -15.64512 | -56.12087 | 625 ft | 23 kts | 331° |
| 2026-04-22 15:59 | -15.64421 | -56.12166 | 629 ft | 13 kts | 336° |
| 2026-04-22 15:59 | -15.64446 | -56.12131 | 627 ft | 10 kts | 146° |
| 2026-04-22 15:59 | -15.64512 | -56.12085 | 625 ft | 12 kts | 147° |
| 2026-04-22 16:00 | -15.64593 | -56.12040 | 623 ft | 14 kts | 154° |
| 2026-04-22 16:00 | -15.64686 | -56.11993 | 620 ft | 15 kts | 153° |
| 2026-04-22 16:00 | -15.64790 | -56.11940 | 618 ft | 17 kts | 154° |
| 2026-04-22 16:00 | -15.64907 | -56.11884 | 614 ft | 19 kts | 156° |
| 2026-04-22 16:01 | -15.65035 | -56.11827 | 611 ft | 20 kts | 158° |
| 2026-04-22 16:01 | -15.65146 | -56.11760 | 608 ft | 15 kts | 150° |
| 2026-04-22 16:01 | -15.65198 | -56.11786 | 607 ft | 3 kts | 256° |
| 2026-04-22 16:01 | -15.65199 | -56.11790 | 607 ft | 0 kts | 251° |
| 2026-04-22 16:02 | -15.65206 | -56.11803 | 607 ft | 3 kts | 243° |
| 2026-04-22 16:02 | -15.65207 | -56.11830 | 608 ft | 5 kts | 296° |
| 2026-04-22 16:02 | -15.65148 | -56.11876 | 610 ft | 16 kts | 332° |
| 2026-04-22 16:02 | -15.65044 | -56.11932 | 613 ft | 15 kts | 332° |
| 2026-04-22 16:03 | -15.64965 | -56.11974 | 615 ft | 10 kts | 333° |
| 2026-04-22 16:03 | -15.64917 | -56.11999 | 616 ft | 6 kts | 333° |
| 2026-04-22 16:03 | -15.64882 | -56.12019 | 617 ft | 5 kts | 333° |
| 2026-04-22 16:03 | -15.64852 | -56.12042 | 618 ft | 4 kts | 296° |
| 2026-04-22 16:04 | -15.64854 | -56.12065 | 619 ft | 1 kts | 245° |
| 2026-04-22 16:04 | -15.64857 | -56.12076 | 619 ft | 1 kts | 246° |
| 2026-04-22 16:04 | -15.64859 | -56.12080 | 619 ft | 1 kts | 243° |
| 2026-04-22 16:04 | -15.64862 | -56.12085 | 619 ft | 0 kts | 243° |